sensor_id;sensor_type;location;lat;lon;timestamp;P1;durP1;ratioP1;P2;durP2;ratioP2
54871;SDS011;43914;57.680;11.982;2023-04-06T00:01:31;5.00;;;1.40;;
54871;SDS011;43914;57.680;11.982;2023-04-06T00:03:56;6.10;;;1.60;;
54871;SDS011;43914;57.680;11.982;2023-04-06T00:06:22;5.00;;;1.40;;
54871;SDS011;43914;57.680;11.982;2023-04-06T00:08:47;5.40;;;1.70;;
54871;SDS011;43914;57.680;11.982;2023-04-06T00:11:13;5.10;;;1.70;;
54871;SDS011;43914;57.680;11.982;2023-04-06T00:13:38;5.90;;;1.70;;
54871;SDS011;43914;57.680;11.982;2023-04-06T00:16:04;5.20;;;1.60;;
54871;SDS011;43914;57.680;11.982;2023-04-06T00:18:31;5.40;;;1.80;;
54871;SDS011;43914;57.680;11.982;2023-04-06T00:20:57;5.50;;;2.20;;
54871;SDS011;43914;57.680;11.982;2023-04-06T00:23:22;5.20;;;1.80;;
54871;SDS011;43914;57.680;11.982;2023-04-06T00:25:48;5.80;;;1.90;;
54871;SDS011;43914;57.680;11.982;2023-04-06T00:28:13;5.30;;;1.60;;
54871;SDS011;43914;57.680;11.982;2023-04-06T00:30:40;4.00;;;1.40;;
54871;SDS011;43914;57.680;11.982;2023-04-06T00:33:06;5.10;;;1.70;;
54871;SDS011;43914;57.680;11.982;2023-04-06T00:35:31;5.70;;;1.50;;
54871;SDS011;43914;57.680;11.982;2023-04-06T00:37:57;5.70;;;1.80;;
54871;SDS011;43914;57.680;11.982;2023-04-06T00:40:23;4.40;;;1.80;;
54871;SDS011;43914;57.680;11.982;2023-04-06T00:42:48;6.70;;;1.70;;
54871;SDS011;43914;57.680;11.982;2023-04-06T00:45:14;4.40;;;1.50;;
54871;SDS011;43914;57.680;11.982;2023-04-06T00:47:39;5.30;;;1.30;;
54871;SDS011;43914;57.680;11.982;2023-04-06T00:50:05;4.80;;;1.50;;
54871;SDS011;43914;57.680;11.982;2023-04-06T00:52:31;5.40;;;1.60;;
54871;SDS011;43914;57.680;11.982;2023-04-06T00:54:56;5.00;;;1.70;;
54871;SDS011;43914;57.680;11.982;2023-04-06T00:57:22;4.90;;;1.60;;
54871;SDS011;43914;57.680;11.982;2023-04-06T00:59:47;5.50;;;1.50;;
54871;SDS011;43914;57.680;11.982;2023-04-06T01:02:13;4.60;;;1.50;;
54871;SDS011;43914;57.680;11.982;2023-04-06T01:04:42;4.40;;;1.60;;
54871;SDS011;43914;57.680;11.982;2023-04-06T01:07:07;6.00;;;1.80;;
54871;SDS011;43914;57.680;11.982;2023-04-06T01:09:33;5.10;;;1.50;;
54871;SDS011;43914;57.680;11.982;2023-04-06T01:11:58;4.70;;;1.50;;
54871;SDS011;43914;57.680;11.982;2023-04-06T01:14:24;4.50;;;1.50;;
54871;SDS011;43914;57.680;11.982;2023-04-06T01:16:51;4.70;;;1.40;;
54871;SDS011;43914;57.680;11.982;2023-04-06T01:19:17;5.40;;;1.30;;
54871;SDS011;43914;57.680;11.982;2023-04-06T01:21:43;4.40;;;1.40;;
54871;SDS011;43914;57.680;11.982;2023-04-06T01:24:09;4.30;;;1.40;;
54871;SDS011;43914;57.680;11.982;2023-04-06T01:26:35;5.40;;;1.50;;
54871;SDS011;43914;57.680;11.982;2023-04-06T01:29:01;4.20;;;1.30;;
54871;SDS011;43914;57.680;11.982;2023-04-06T01:31:27;4.20;;;1.40;;
54871;SDS011;43914;57.680;11.982;2023-04-06T01:33:54;4.20;;;1.40;;
54871;SDS011;43914;57.680;11.982;2023-04-06T01:36:19;5.10;;;1.50;;
54871;SDS011;43914;57.680;11.982;2023-04-06T01:38:45;5.00;;;1.50;;
54871;SDS011;43914;57.680;11.982;2023-04-06T01:41:11;3.60;;;1.40;;
54871;SDS011;43914;57.680;11.982;2023-04-06T01:43:36;5.20;;;1.50;;
54871;SDS011;43914;57.680;11.982;2023-04-06T01:46:02;3.50;;;1.20;;
54871;SDS011;43914;57.680;11.982;2023-04-06T01:48:28;4.70;;;1.40;;
54871;SDS011;43914;57.680;11.982;2023-04-06T01:50:55;4.10;;;1.30;;
54871;SDS011;43914;57.680;11.982;2023-04-06T01:53:20;3.80;;;1.30;;
54871;SDS011;43914;57.680;11.982;2023-04-06T01:55:46;4.40;;;1.40;;
54871;SDS011;43914;57.680;11.982;2023-04-06T01:58:12;3.80;;;1.20;;
54871;SDS011;43914;57.680;11.982;2023-04-06T02:00:39;5.00;;;1.50;;
54871;SDS011;43914;57.680;11.982;2023-04-06T02:03:05;5.30;;;1.50;;
54871;SDS011;43914;57.680;11.982;2023-04-06T02:05:31;5.50;;;1.50;;
54871;SDS011;43914;57.680;11.982;2023-04-06T02:08:03;4.40;;;1.40;;
54871;SDS011;43914;57.680;11.982;2023-04-06T02:10:30;4.50;;;1.50;;
54871;SDS011;43914;57.680;11.982;2023-04-06T02:12:57;5.40;;;1.60;;
54871;SDS011;43914;57.680;11.982;2023-04-06T02:15:22;5.00;;;1.60;;
54871;SDS011;43914;57.680;11.982;2023-04-06T02:17:48;5.00;;;1.50;;
54871;SDS011;43914;57.680;11.982;2023-04-06T02:20:13;4.20;;;1.40;;
54871;SDS011;43914;57.680;11.982;2023-04-06T02:22:39;4.80;;;1.30;;
54871;SDS011;43914;57.680;11.982;2023-04-06T02:25:05;4.40;;;1.40;;
54871;SDS011;43914;57.680;11.982;2023-04-06T02:27:31;5.00;;;1.50;;
54871;SDS011;43914;57.680;11.982;2023-04-06T02:29:56;5.00;;;1.50;;
54871;SDS011;43914;57.680;11.982;2023-04-06T02:32:22;3.60;;;1.30;;
54871;SDS011;43914;57.680;11.982;2023-04-06T02:34:47;3.60;;;1.20;;
54871;SDS011;43914;57.680;11.982;2023-04-06T02:37:13;5.70;;;1.50;;
54871;SDS011;43914;57.680;11.982;2023-04-06T02:39:38;4.60;;;1.50;;
54871;SDS011;43914;57.680;11.982;2023-04-06T02:42:04;4.90;;;1.40;;
54871;SDS011;43914;57.680;11.982;2023-04-06T02:44:29;5.10;;;1.40;;
54871;SDS011;43914;57.680;11.982;2023-04-06T02:46:55;5.10;;;1.50;;
54871;SDS011;43914;57.680;11.982;2023-04-06T02:49:20;4.60;;;1.50;;
54871;SDS011;43914;57.680;11.982;2023-04-06T02:51:46;4.60;;;1.40;;
54871;SDS011;43914;57.680;11.982;2023-04-06T02:54:12;4.10;;;1.40;;
54871;SDS011;43914;57.680;11.982;2023-04-06T02:56:37;4.70;;;1.60;;
54871;SDS011;43914;57.680;11.982;2023-04-06T02:59:03;4.70;;;1.50;;
54871;SDS011;43914;57.680;11.982;2023-04-06T03:01:28;5.10;;;1.60;;
54871;SDS011;43914;57.680;11.982;2023-04-06T03:03:53;4.90;;;1.60;;
54871;SDS011;43914;57.680;11.982;2023-04-06T03:06:19;4.10;;;1.50;;
54871;SDS011;43914;57.680;11.982;2023-04-06T03:08:45;5.10;;;1.70;;
54871;SDS011;43914;57.680;11.982;2023-04-06T03:11:10;4.70;;;1.40;;
54871;SDS011;43914;57.680;11.982;2023-04-06T03:13:36;4.60;;;1.40;;
54871;SDS011;43914;57.680;11.982;2023-04-06T03:16:04;4.90;;;1.50;;
54871;SDS011;43914;57.680;11.982;2023-04-06T03:18:30;4.40;;;1.50;;
54871;SDS011;43914;57.680;11.982;2023-04-06T03:20:55;4.40;;;1.50;;
54871;SDS011;43914;57.680;11.982;2023-04-06T03:23:21;5.10;;;1.70;;
54871;SDS011;43914;57.680;11.982;2023-04-06T03:25:46;4.20;;;1.30;;
54871;SDS011;43914;57.680;11.982;2023-04-06T03:28:12;5.60;;;1.50;;
54871;SDS011;43914;57.680;11.982;2023-04-06T03:30:37;5.50;;;1.60;;
54871;SDS011;43914;57.680;11.982;2023-04-06T03:33:03;4.90;;;1.60;;
54871;SDS011;43914;57.680;11.982;2023-04-06T03:35:28;4.80;;;1.60;;
54871;SDS011;43914;57.680;11.982;2023-04-06T03:37:54;4.20;;;1.30;;
54871;SDS011;43914;57.680;11.982;2023-04-06T03:40:20;5.40;;;1.90;;
54871;SDS011;43914;57.680;11.982;2023-04-06T03:42:45;4.00;;;1.40;;
54871;SDS011;43914;57.680;11.982;2023-04-06T03:45:11;4.90;;;1.60;;
54871;SDS011;43914;57.680;11.982;2023-04-06T03:47:38;4.00;;;1.50;;
54871;SDS011;43914;57.680;11.982;2023-04-06T03:50:03;3.60;;;1.30;;
54871;SDS011;43914;57.680;11.982;2023-04-06T03:52:29;4.20;;;1.40;;
54871;SDS011;43914;57.680;11.982;2023-04-06T03:54:55;4.40;;;1.50;;
54871;SDS011;43914;57.680;11.982;2023-04-06T03:57:20;4.50;;;1.60;;
54871;SDS011;43914;57.680;11.982;2023-04-06T03:59:46;3.80;;;1.30;;
54871;SDS011;43914;57.680;11.982;2023-04-06T04:02:11;4.20;;;1.50;;
54871;SDS011;43914;57.680;11.982;2023-04-06T04:04:37;5.50;;;1.60;;
54871;SDS011;43914;57.680;11.982;2023-04-06T04:07:03;3.30;;;1.30;;
54871;SDS011;43914;57.680;11.982;2023-04-06T04:09:28;5.10;;;1.60;;
54871;SDS011;43914;57.680;11.982;2023-04-06T04:11:53;4.00;;;1.60;;
54871;SDS011;43914;57.680;11.982;2023-04-06T04:14:19;3.80;;;1.40;;
54871;SDS011;43914;57.680;11.982;2023-04-06T04:16:45;5.60;;;1.60;;
54871;SDS011;43914;57.680;11.982;2023-04-06T04:19:10;4.90;;;1.50;;
54871;SDS011;43914;57.680;11.982;2023-04-06T04:21:42;4.90;;;1.60;;
54871;SDS011;43914;57.680;11.982;2023-04-06T04:24:10;5.10;;;1.60;;
54871;SDS011;43914;57.680;11.982;2023-04-06T04:26:35;4.80;;;1.40;;
54871;SDS011;43914;57.680;11.982;2023-04-06T04:29:01;4.70;;;1.40;;
54871;SDS011;43914;57.680;11.982;2023-04-06T04:31:26;4.50;;;1.50;;
54871;SDS011;43914;57.680;11.982;2023-04-06T04:33:52;4.40;;;1.40;;
54871;SDS011;43914;57.680;11.982;2023-04-06T04:36:17;4.90;;;1.50;;
54871;SDS011;43914;57.680;11.982;2023-04-06T04:38:43;4.90;;;1.70;;
54871;SDS011;43914;57.680;11.982;2023-04-06T04:41:08;5.60;;;1.60;;
54871;SDS011;43914;57.680;11.982;2023-04-06T04:43:34;5.30;;;1.80;;
54871;SDS011;43914;57.680;11.982;2023-04-06T04:46:00;4.50;;;1.70;;
54871;SDS011;43914;57.680;11.982;2023-04-06T04:48:26;4.90;;;1.70;;
54871;SDS011;43914;57.680;11.982;2023-04-06T04:50:51;4.50;;;1.60;;
54871;SDS011;43914;57.680;11.982;2023-04-06T04:53:17;6.30;;;1.70;;
54871;SDS011;43914;57.680;11.982;2023-04-06T04:55:42;5.80;;;1.90;;
54871;SDS011;43914;57.680;11.982;2023-04-06T04:58:08;4.20;;;1.40;;
54871;SDS011;43914;57.680;11.982;2023-04-06T05:00:36;4.90;;;1.60;;
54871;SDS011;43914;57.680;11.982;2023-04-06T05:03:01;3.70;;;1.50;;
54871;SDS011;43914;57.680;11.982;2023-04-06T05:05:29;4.20;;;1.50;;
54871;SDS011;43914;57.680;11.982;2023-04-06T05:07:55;4.80;;;1.70;;
54871;SDS011;43914;57.680;11.982;2023-04-06T05:10:20;5.90;;;2.00;;
54871;SDS011;43914;57.680;11.982;2023-04-06T05:12:45;5.40;;;1.80;;
54871;SDS011;43914;57.680;11.982;2023-04-06T05:15:11;5.50;;;1.70;;
54871;SDS011;43914;57.680;11.982;2023-04-06T05:17:37;4.90;;;1.60;;
54871;SDS011;43914;57.680;11.982;2023-04-06T05:20:02;5.30;;;1.80;;
54871;SDS011;43914;57.680;11.982;2023-04-06T05:22:28;7.70;;;2.00;;
54871;SDS011;43914;57.680;11.982;2023-04-06T05:24:54;4.90;;;1.70;;
54871;SDS011;43914;57.680;11.982;2023-04-06T05:27:19;4.80;;;1.70;;
54871;SDS011;43914;57.680;11.982;2023-04-06T05:29:45;5.00;;;1.70;;
54871;SDS011;43914;57.680;11.982;2023-04-06T05:32:10;4.20;;;1.40;;
54871;SDS011;43914;57.680;11.982;2023-04-06T05:34:36;5.20;;;1.70;;
54871;SDS011;43914;57.680;11.982;2023-04-06T05:37:02;6.30;;;1.80;;
54871;SDS011;43914;57.680;11.982;2023-04-06T05:39:27;7.60;;;1.90;;
54871;SDS011;43914;57.680;11.982;2023-04-06T05:41:53;6.60;;;1.90;;
54871;SDS011;43914;57.680;11.982;2023-04-06T05:44:18;5.80;;;1.60;;
54871;SDS011;43914;57.680;11.982;2023-04-06T05:46:44;6.80;;;1.70;;
54871;SDS011;43914;57.680;11.982;2023-04-06T05:49:10;5.20;;;1.80;;
54871;SDS011;43914;57.680;11.982;2023-04-06T05:51:35;5.40;;;1.50;;
54871;SDS011;43914;57.680;11.982;2023-04-06T05:54:00;7.50;;;1.90;;
54871;SDS011;43914;57.680;11.982;2023-04-06T05:56:26;5.20;;;1.70;;
54871;SDS011;43914;57.680;11.982;2023-04-06T05:58:51;7.80;;;1.90;;
54871;SDS011;43914;57.680;11.982;2023-04-06T06:01:17;4.90;;;1.70;;
54871;SDS011;43914;57.680;11.982;2023-04-06T06:03:42;4.90;;;1.80;;
54871;SDS011;43914;57.680;11.982;2023-04-06T06:06:08;6.40;;;2.00;;
54871;SDS011;43914;57.680;11.982;2023-04-06T06:08:33;5.40;;;1.80;;
54871;SDS011;43914;57.680;11.982;2023-04-06T06:10:59;4.70;;;1.60;;
54871;SDS011;43914;57.680;11.982;2023-04-06T06:13:25;5.90;;;2.00;;
54871;SDS011;43914;57.680;11.982;2023-04-06T06:15:50;5.10;;;1.70;;
54871;SDS011;43914;57.680;11.982;2023-04-06T06:18:16;5.50;;;1.60;;
54871;SDS011;43914;57.680;11.982;2023-04-06T06:20:42;5.60;;;1.70;;
54871;SDS011;43914;57.680;11.982;2023-04-06T06:23:10;5.20;;;1.90;;
54871;SDS011;43914;57.680;11.982;2023-04-06T06:25:35;5.40;;;1.70;;
54871;SDS011;43914;57.680;11.982;2023-04-06T06:28:01;5.40;;;1.90;;
54871;SDS011;43914;57.680;11.982;2023-04-06T06:30:26;4.80;;;1.60;;
54871;SDS011;43914;57.680;11.982;2023-04-06T06:32:52;4.10;;;1.30;;
54871;SDS011;43914;57.680;11.982;2023-04-06T06:35:17;5.70;;;1.70;;
54871;SDS011;43914;57.680;11.982;2023-04-06T06:37:43;5.20;;;1.60;;
54871;SDS011;43914;57.680;11.982;2023-04-06T06:40:09;4.70;;;1.50;;
54871;SDS011;43914;57.680;11.982;2023-04-06T06:42:38;5.90;;;1.80;;
54871;SDS011;43914;57.680;11.982;2023-04-06T06:45:05;6.00;;;1.70;;
54871;SDS011;43914;57.680;11.982;2023-04-06T06:47:32;6.40;;;1.80;;
54871;SDS011;43914;57.680;11.982;2023-04-06T06:49:57;4.40;;;1.70;;
54871;SDS011;43914;57.680;11.982;2023-04-06T06:52:23;5.80;;;1.70;;
54871;SDS011;43914;57.680;11.982;2023-04-06T06:54:49;3.70;;;1.30;;
54871;SDS011;43914;57.680;11.982;2023-04-06T06:57:15;3.50;;;1.30;;
54871;SDS011;43914;57.680;11.982;2023-04-06T06:59:40;5.30;;;1.70;;
54871;SDS011;43914;57.680;11.982;2023-04-06T07:02:06;4.90;;;1.50;;
54871;SDS011;43914;57.680;11.982;2023-04-06T07:04:31;5.20;;;1.80;;
54871;SDS011;43914;57.680;11.982;2023-04-06T07:06:56;5.30;;;1.60;;
54871;SDS011;43914;57.680;11.982;2023-04-06T07:09:22;4.10;;;1.60;;
54871;SDS011;43914;57.680;11.982;2023-04-06T07:11:47;5.80;;;1.60;;
54871;SDS011;43914;57.680;11.982;2023-04-06T07:14:14;5.80;;;1.60;;
54871;SDS011;43914;57.680;11.982;2023-04-06T07:16:40;5.20;;;1.70;;
54871;SDS011;43914;57.680;11.982;2023-04-06T07:19:06;3.40;;;1.30;;
54871;SDS011;43914;57.680;11.982;2023-04-06T07:21:31;6.10;;;1.80;;
54871;SDS011;43914;57.680;11.982;2023-04-06T07:23:57;4.60;;;1.40;;
54871;SDS011;43914;57.680;11.982;2023-04-06T07:26:22;4.70;;;1.40;;
54871;SDS011;43914;57.680;11.982;2023-04-06T07:28:48;3.90;;;1.20;;
54871;SDS011;43914;57.680;11.982;2023-04-06T07:31:13;4.50;;;1.30;;
54871;SDS011;43914;57.680;11.982;2023-04-06T07:33:39;3.20;;;1.20;;
54871;SDS011;43914;57.680;11.982;2023-04-06T07:36:05;5.40;;;1.30;;
54871;SDS011;43914;57.680;11.982;2023-04-06T07:38:30;2.90;;;1.10;;
54871;SDS011;43914;57.680;11.982;2023-04-06T07:40:56;4.00;;;1.20;;
54871;SDS011;43914;57.680;11.982;2023-04-06T07:43:21;5.40;;;1.50;;
54871;SDS011;43914;57.680;11.982;2023-04-06T07:45:46;5.00;;;1.40;;
54871;SDS011;43914;57.680;11.982;2023-04-06T07:48:12;5.00;;;1.40;;
54871;SDS011;43914;57.680;11.982;2023-04-06T07:50:37;5.00;;;1.40;;
54871;SDS011;43914;57.680;11.982;2023-04-06T07:53:03;4.60;;;1.30;;
54871;SDS011;43914;57.680;11.982;2023-04-06T07:55:29;6.50;;;1.40;;
54871;SDS011;43914;57.680;11.982;2023-04-06T07:57:54;5.80;;;1.40;;
54871;SDS011;43914;57.680;11.982;2023-04-06T08:00:20;4.80;;;1.40;;
54871;SDS011;43914;57.680;11.982;2023-04-06T08:02:46;5.50;;;1.40;;
54871;SDS011;43914;57.680;11.982;2023-04-06T08:05:11;5.40;;;1.40;;
54871;SDS011;43914;57.680;11.982;2023-04-06T08:07:37;4.00;;;1.30;;
54871;SDS011;43914;57.680;11.982;2023-04-06T08:10:03;4.30;;;1.40;;
54871;SDS011;43914;57.680;11.982;2023-04-06T08:12:29;3.40;;;1.20;;
54871;SDS011;43914;57.680;11.982;2023-04-06T08:14:54;6.80;;;1.50;;
54871;SDS011;43914;57.680;11.982;2023-04-06T08:17:21;6.10;;;1.40;;
54871;SDS011;43914;57.680;11.982;2023-04-06T08:19:47;4.10;;;1.30;;
54871;SDS011;43914;57.680;11.982;2023-04-06T08:22:13;5.50;;;1.30;;
54871;SDS011;43914;57.680;11.982;2023-04-06T08:24:38;4.70;;;1.40;;
54871;SDS011;43914;57.680;11.982;2023-04-06T08:27:04;3.80;;;1.30;;
54871;SDS011;43914;57.680;11.982;2023-04-06T08:29:29;4.60;;;1.30;;
54871;SDS011;43914;57.680;11.982;2023-04-06T08:31:55;4.50;;;1.50;;
54871;SDS011;43914;57.680;11.982;2023-04-06T08:34:21;4.60;;;1.50;;
54871;SDS011;43914;57.680;11.982;2023-04-06T08:36:47;5.00;;;1.70;;
54871;SDS011;43914;57.680;11.982;2023-04-06T08:39:13;5.40;;;1.90;;
54871;SDS011;43914;57.680;11.982;2023-04-06T08:41:41;5.60;;;1.90;;
54871;SDS011;43914;57.680;11.982;2023-04-06T08:44:07;4.60;;;1.40;;
54871;SDS011;43914;57.680;11.982;2023-04-06T08:46:33;5.20;;;1.60;;
54871;SDS011;43914;57.680;11.982;2023-04-06T08:49:00;5.40;;;1.70;;
54871;SDS011;43914;57.680;11.982;2023-04-06T08:51:28;5.90;;;2.00;;
54871;SDS011;43914;57.680;11.982;2023-04-06T08:53:55;5.80;;;2.00;;
54871;SDS011;43914;57.680;11.982;2023-04-06T08:56:23;6.30;;;1.80;;
54871;SDS011;43914;57.680;11.982;2023-04-06T08:58:50;5.30;;;1.70;;
54871;SDS011;43914;57.680;11.982;2023-04-06T09:01:17;5.30;;;1.80;;
54871;SDS011;43914;57.680;11.982;2023-04-06T09:03:52;5.50;;;1.70;;
54871;SDS011;43914;57.680;11.982;2023-04-06T09:06:21;5.30;;;1.50;;
54871;SDS011;43914;57.680;11.982;2023-04-06T09:08:47;6.20;;;1.60;;
54871;SDS011;43914;57.680;11.982;2023-04-06T09:11:12;5.10;;;1.50;;
54871;SDS011;43914;57.680;11.982;2023-04-06T09:13:47;6.50;;;1.50;;
54871;SDS011;43914;57.680;11.982;2023-04-06T09:16:15;5.50;;;1.80;;
54871;SDS011;43914;57.680;11.982;2023-04-06T09:18:41;5.10;;;1.60;;
54871;SDS011;43914;57.680;11.982;2023-04-06T09:21:08;4.80;;;1.80;;
54871;SDS011;43914;57.680;11.982;2023-04-06T09:23:34;5.50;;;1.70;;
54871;SDS011;43914;57.680;11.982;2023-04-06T09:31:22;4.90;;;1.50;;
54871;SDS011;43914;57.680;11.982;2023-04-06T09:33:50;5.70;;;1.80;;
54871;SDS011;43914;57.680;11.982;2023-04-06T09:36:17;6.80;;;2.10;;
54871;SDS011;43914;57.680;11.982;2023-04-06T09:38:52;6.70;;;1.90;;
54871;SDS011;43914;57.680;11.982;2023-04-06T09:41:25;6.10;;;2.20;;
54871;SDS011;43914;57.680;11.982;2023-04-06T09:43:51;7.50;;;2.50;;
54871;SDS011;43914;57.680;11.982;2023-04-06T09:46:26;8.00;;;2.70;;
54871;SDS011;43914;57.680;11.982;2023-04-06T09:48:52;6.90;;;2.80;;
54871;SDS011;43914;57.680;11.982;2023-04-06T09:51:18;9.10;;;2.90;;
54871;SDS011;43914;57.680;11.982;2023-04-06T09:53:45;8.10;;;2.50;;
54871;SDS011;43914;57.680;11.982;2023-04-06T09:56:17;8.30;;;2.70;;
54871;SDS011;43914;57.680;11.982;2023-04-06T09:58:49;13.30;;;3.90;;
54871;SDS011;43914;57.680;11.982;2023-04-06T10:01:20;7.00;;;2.70;;
54871;SDS011;43914;57.680;11.982;2023-04-06T10:03:52;7.60;;;3.00;;
54871;SDS011;43914;57.680;11.982;2023-04-06T10:06:27;6.90;;;2.90;;
54871;SDS011;43914;57.680;11.982;2023-04-06T10:08:57;7.50;;;3.00;;
54871;SDS011;43914;57.680;11.982;2023-04-06T10:11:24;7.50;;;2.60;;
54871;SDS011;43914;57.680;11.982;2023-04-06T10:13:50;6.90;;;2.70;;
54871;SDS011;43914;57.680;11.982;2023-04-06T10:16:16;8.70;;;3.40;;
54871;SDS011;43914;57.680;11.982;2023-04-06T10:18:44;10.30;;;3.00;;
54871;SDS011;43914;57.680;11.982;2023-04-06T10:21:15;9.60;;;2.80;;
54871;SDS011;43914;57.680;11.982;2023-04-06T10:23:52;10.00;;;3.60;;
54871;SDS011;43914;57.680;11.982;2023-04-06T10:26:21;9.30;;;3.60;;
54871;SDS011;43914;57.680;11.982;2023-04-06T10:28:47;7.60;;;3.40;;
54871;SDS011;43914;57.680;11.982;2023-04-06T10:31:14;8.30;;;3.50;;
54871;SDS011;43914;57.680;11.982;2023-04-06T10:33:40;9.80;;;4.00;;
54871;SDS011;43914;57.680;11.982;2023-04-06T10:36:13;10.00;;;4.20;;
54871;SDS011;43914;57.680;11.982;2023-04-06T10:38:41;9.00;;;4.30;;
54871;SDS011;43914;57.680;11.982;2023-04-06T10:41:08;11.20;;;4.80;;
54871;SDS011;43914;57.680;11.982;2023-04-06T10:43:36;13.90;;;5.60;;
54871;SDS011;43914;57.680;11.982;2023-04-06T10:46:04;12.20;;;5.40;;
54871;SDS011;43914;57.680;11.982;2023-04-06T10:48:37;9.90;;;4.50;;
54871;SDS011;43914;57.680;11.982;2023-04-06T10:51:15;13.10;;;6.10;;
54871;SDS011;43914;57.680;11.982;2023-04-06T10:53:42;13.60;;;6.60;;
54871;SDS011;43914;57.680;11.982;2023-04-06T10:56:12;17.80;;;6.30;;
54871;SDS011;43914;57.680;11.982;2023-04-06T10:58:50;12.50;;;5.30;;
54871;SDS011;43914;57.680;11.982;2023-04-06T11:01:18;13.50;;;5.50;;
54871;SDS011;43914;57.680;11.982;2023-04-06T11:03:46;14.50;;;6.90;;
54871;SDS011;43914;57.680;11.982;2023-04-06T11:06:23;13.10;;;6.30;;
54871;SDS011;43914;57.680;11.982;2023-04-06T11:08:50;13.40;;;6.20;;
54871;SDS011;43914;57.680;11.982;2023-04-06T11:11:17;13.60;;;6.20;;
54871;SDS011;43914;57.680;11.982;2023-04-06T11:13:47;13.60;;;5.60;;
54871;SDS011;43914;57.680;11.982;2023-04-06T11:16:14;14.10;;;6.10;;
54871;SDS011;43914;57.680;11.982;2023-04-06T11:21:17;12.20;;;5.60;;
54871;SDS011;43914;57.680;11.982;2023-04-06T11:26:42;10.40;;;4.00;;
54871;SDS011;43914;57.680;11.982;2023-04-06T11:29:16;10.30;;;3.90;;
54871;SDS011;43914;57.680;11.982;2023-04-06T11:31:53;10.10;;;4.10;;
54871;SDS011;43914;57.680;11.982;2023-04-06T11:34:23;9.50;;;4.00;;
54871;SDS011;43914;57.680;11.982;2023-04-06T11:37:00;9.10;;;3.40;;
54871;SDS011;43914;57.680;11.982;2023-04-06T11:39:28;9.10;;;3.70;;
54871;SDS011;43914;57.680;11.982;2023-04-06T11:41:58;11.60;;;4.10;;
54871;SDS011;43914;57.680;11.982;2023-04-06T11:44:31;9.50;;;3.40;;
54871;SDS011;43914;57.680;11.982;2023-04-06T11:46:58;8.60;;;3.40;;
54871;SDS011;43914;57.680;11.982;2023-04-06T11:49:27;9.40;;;3.90;;
54871;SDS011;43914;57.680;11.982;2023-04-06T11:51:56;11.70;;;3.70;;
54871;SDS011;43914;57.680;11.982;2023-04-06T11:54:56;11.20;;;3.70;;
54871;SDS011;43914;57.680;11.982;2023-04-06T11:57:16;11.30;;;3.30;;
54871;SDS011;43914;57.680;11.982;2023-04-06T11:59:42;9.00;;;3.40;;
54871;SDS011;43914;57.680;11.982;2023-04-06T12:02:08;9.50;;;2.90;;
54871;SDS011;43914;57.680;11.982;2023-04-06T12:04:34;7.60;;;2.60;;
54871;SDS011;43914;57.680;11.982;2023-04-06T12:07:00;7.50;;;2.70;;
54871;SDS011;43914;57.680;11.982;2023-04-06T12:09:26;8.00;;;2.50;;
54871;SDS011;43914;57.680;11.982;2023-04-06T12:11:52;9.10;;;3.30;;
54871;SDS011;43914;57.680;11.982;2023-04-06T12:14:18;9.20;;;2.80;;
54871;SDS011;43914;57.680;11.982;2023-04-06T12:16:43;9.10;;;3.10;;
54871;SDS011;43914;57.680;11.982;2023-04-06T12:19:09;8.60;;;2.80;;
54871;SDS011;43914;57.680;11.982;2023-04-06T12:21:35;9.60;;;2.70;;
54871;SDS011;43914;57.680;11.982;2023-04-06T12:24:02;12.20;;;2.80;;
54871;SDS011;43914;57.680;11.982;2023-04-06T12:26:29;7.30;;;2.20;;
54871;SDS011;43914;57.680;11.982;2023-04-06T12:28:55;7.90;;;2.80;;
54871;SDS011;43914;57.680;11.982;2023-04-06T12:31:21;10.90;;;2.60;;
54871;SDS011;43914;57.680;11.982;2023-04-06T12:33:51;9.40;;;2.60;;
54871;SDS011;43914;57.680;11.982;2023-04-06T12:36:17;8.90;;;3.20;;
54871;SDS011;43914;57.680;11.982;2023-04-06T12:38:48;8.20;;;2.50;;
54871;SDS011;43914;57.680;11.982;2023-04-06T12:41:14;7.90;;;2.50;;
54871;SDS011;43914;57.680;11.982;2023-04-06T12:43:43;7.10;;;2.20;;
54871;SDS011;43914;57.680;11.982;2023-04-06T12:46:10;8.40;;;2.40;;
54871;SDS011;43914;57.680;11.982;2023-04-06T12:48:36;8.10;;;2.40;;
54871;SDS011;43914;57.680;11.982;2023-04-06T12:51:03;8.30;;;2.60;;
54871;SDS011;43914;57.680;11.982;2023-04-06T12:53:30;7.00;;;2.10;;
54871;SDS011;43914;57.680;11.982;2023-04-06T12:55:56;6.20;;;1.80;;
54871;SDS011;43914;57.680;11.982;2023-04-06T12:58:22;6.20;;;2.10;;
54871;SDS011;43914;57.680;11.982;2023-04-06T13:00:49;7.60;;;2.20;;
54871;SDS011;43914;57.680;11.982;2023-04-06T13:03:18;5.90;;;1.90;;
54871;SDS011;43914;57.680;11.982;2023-04-06T13:05:54;5.60;;;1.50;;
54871;SDS011;43914;57.680;11.982;2023-04-06T13:08:20;7.50;;;2.00;;
54871;SDS011;43914;57.680;11.982;2023-04-06T13:10:49;6.10;;;1.60;;
54871;SDS011;43914;57.680;11.982;2023-04-06T13:13:17;8.90;;;2.10;;
54871;SDS011;43914;57.680;11.982;2023-04-06T13:15:47;6.80;;;1.90;;
54871;SDS011;43914;57.680;11.982;2023-04-06T13:18:16;5.40;;;1.70;;
54871;SDS011;43914;57.680;11.982;2023-04-06T13:20:41;5.50;;;1.90;;
54871;SDS011;43914;57.680;11.982;2023-04-06T13:23:07;5.10;;;1.40;;
54871;SDS011;43914;57.680;11.982;2023-04-06T13:25:33;6.20;;;1.80;;
54871;SDS011;43914;57.680;11.982;2023-04-06T13:27:59;5.30;;;1.60;;
54871;SDS011;43914;57.680;11.982;2023-04-06T13:30:25;7.00;;;1.70;;
54871;SDS011;43914;57.680;11.982;2023-04-06T13:32:50;4.20;;;1.30;;
54871;SDS011;43914;57.680;11.982;2023-04-06T13:35:16;5.60;;;1.20;;
54871;SDS011;43914;57.680;11.982;2023-04-06T13:37:43;4.40;;;1.40;;
54871;SDS011;43914;57.680;11.982;2023-04-06T13:40:09;3.30;;;1.20;;
54871;SDS011;43914;57.680;11.982;2023-04-06T13:42:36;5.30;;;1.40;;
54871;SDS011;43914;57.680;11.982;2023-04-06T13:45:05;4.60;;;1.10;;
54871;SDS011;43914;57.680;11.982;2023-04-06T13:47:31;4.70;;;1.40;;
54871;SDS011;43914;57.680;11.982;2023-04-06T13:49:56;4.30;;;1.30;;
54871;SDS011;43914;57.680;11.982;2023-04-06T13:52:22;5.30;;;1.30;;
54871;SDS011;43914;57.680;11.982;2023-04-06T13:54:48;4.80;;;1.40;;
54871;SDS011;43914;57.680;11.982;2023-04-06T13:57:15;4.90;;;1.20;;
54871;SDS011;43914;57.680;11.982;2023-04-06T13:59:40;5.30;;;1.40;;
54871;SDS011;43914;57.680;11.982;2023-04-06T14:02:06;5.90;;;1.30;;
54871;SDS011;43914;57.680;11.982;2023-04-06T14:04:33;6.10;;;1.30;;
54871;SDS011;43914;57.680;11.982;2023-04-06T14:06:59;5.10;;;1.60;;
54871;SDS011;43914;57.680;11.982;2023-04-06T14:09:26;6.20;;;1.40;;
54871;SDS011;43914;57.680;11.982;2023-04-06T14:11:52;6.50;;;1.60;;
54871;SDS011;43914;57.680;11.982;2023-04-06T14:14:18;6.10;;;1.80;;
54871;SDS011;43914;57.680;11.982;2023-04-06T14:16:44;11.50;;;2.90;;
54871;SDS011;43914;57.680;11.982;2023-04-06T14:19:10;8.70;;;3.30;;
54871;SDS011;43914;57.680;11.982;2023-04-06T14:21:37;10.50;;;2.60;;
54871;SDS011;43914;57.680;11.982;2023-04-06T14:24:09;7.20;;;2.10;;
54871;SDS011;43914;57.680;11.982;2023-04-06T14:26:34;6.00;;;2.00;;
54871;SDS011;43914;57.680;11.982;2023-04-06T14:29:00;7.00;;;1.90;;
54871;SDS011;43914;57.680;11.982;2023-04-06T14:31:27;7.10;;;2.10;;
54871;SDS011;43914;57.680;11.982;2023-04-06T14:33:53;6.80;;;1.90;;
54871;SDS011;43914;57.680;11.982;2023-04-06T14:36:19;8.80;;;2.40;;
54871;SDS011;43914;57.680;11.982;2023-04-06T14:38:45;7.20;;;1.90;;
54871;SDS011;43914;57.680;11.982;2023-04-06T14:41:17;7.90;;;2.00;;